sensor_id;sensor_type;location;lat;lon;timestamp;pressure;altitude;pressure_sealevel;temperature;humidity
80333;BME280;69652;51.864;-2.246;2024-01-06T00:01:11;101076.75;;;5.84;86.35
80333;BME280;69652;51.864;-2.246;2024-01-06T00:03:37;101077.81;;;5.77;86.97
80333;BME280;69652;51.864;-2.246;2024-01-06T00:06:03;101080.22;;;5.79;86.68
80333;BME280;69652;51.864;-2.246;2024-01-06T00:08:29;101075.94;;;5.83;87.89
80333;BME280;69652;51.864;-2.246;2024-01-06T00:10:55;101081.91;;;5.90;87.51
80333;BME280;69652;51.864;-2.246;2024-01-06T00:13:20;101086.53;;;5.95;87.50
80333;BME280;69652;51.864;-2.246;2024-01-06T00:15:46;101083.06;;;6.04;86.48
80333;BME280;69652;51.864;-2.246;2024-01-06T00:18:12;101083.34;;;6.08;85.61
80333;BME280;69652;51.864;-2.246;2024-01-06T00:20:37;101086.59;;;6.10;86.33
80333;BME280;69652;51.864;-2.246;2024-01-06T00:23:04;101089.28;;;6.10;85.77
80333;BME280;69652;51.864;-2.246;2024-01-06T00:25:29;101096.84;;;6.13;85.75
80333;BME280;69652;51.864;-2.246;2024-01-06T00:27:55;101097.38;;;6.15;85.96
80333;BME280;69652;51.864;-2.246;2024-01-06T00:30:20;101105.44;;;6.15;85.02
80333;BME280;69652;51.864;-2.246;2024-01-06T00:32:46;101102.75;;;6.15;84.03
80333;BME280;69652;51.864;-2.246;2024-01-06T00:35:11;101103.31;;;6.17;85.21
80333;BME280;69652;51.864;-2.246;2024-01-06T00:37:37;101105.50;;;6.20;84.54
80333;BME280;69652;51.864;-2.246;2024-01-06T00:40:03;101110.31;;;6.18;85.04
80333;BME280;69652;51.864;-2.246;2024-01-06T00:42:29;101116.00;;;6.22;84.86
80333;BME280;69652;51.864;-2.246;2024-01-06T00:44:55;101114.38;;;6.26;84.56
80333;BME280;69652;51.864;-2.246;2024-01-06T00:47:21;101111.97;;;6.24;84.06
80333;BME280;69652;51.864;-2.246;2024-01-06T00:49:49;101120.59;;;6.21;83.79
80333;BME280;69652;51.864;-2.246;2024-01-06T00:52:15;101119.00;;;6.25;84.30
80333;BME280;69652;51.864;-2.246;2024-01-06T00:54:40;101120.88;;;6.25;85.05
80333;BME280;69652;51.864;-2.246;2024-01-06T00:57:07;101123.28;;;6.26;85.26
80333;BME280;69652;51.864;-2.246;2024-01-06T00:59:33;101120.59;;;6.26;84.42
80333;BME280;69652;51.864;-2.246;2024-01-06T01:01:59;101133.53;;;6.24;85.22
80333;BME280;69652;51.864;-2.246;2024-01-06T01:04:24;101122.75;;;6.24;84.10
80333;BME280;69652;51.864;-2.246;2024-01-06T01:06:50;101118.69;;;6.22;84.82
80333;BME280;69652;51.864;-2.246;2024-01-06T01:09:15;101121.41;;;6.22;85.59
80333;BME280;69652;51.864;-2.246;2024-01-06T01:11:41;101134.88;;;6.22;85.75
80333;BME280;69652;51.864;-2.246;2024-01-06T01:14:07;101130.28;;;6.22;84.44
80333;BME280;69652;51.864;-2.246;2024-01-06T01:16:33;101126.53;;;6.23;85.42
80333;BME280;69652;51.864;-2.246;2024-01-06T01:18:58;101141.63;;;6.24;85.02
80333;BME280;69652;51.864;-2.246;2024-01-06T01:21:24;101142.44;;;6.25;84.88
80333;BME280;69652;51.864;-2.246;2024-01-06T01:23:50;101149.41;;;6.21;84.23
80333;BME280;69652;51.864;-2.246;2024-01-06T01:26:15;101147.25;;;6.12;84.95
80333;BME280;69652;51.864;-2.246;2024-01-06T01:28:41;101158.53;;;6.09;84.00
80333;BME280;69652;51.864;-2.246;2024-01-06T01:31:08;101171.19;;;6.09;84.31
80333;BME280;69652;51.864;-2.246;2024-01-06T01:33:33;101167.44;;;6.10;85.06
80333;BME280;69652;51.864;-2.246;2024-01-06T01:35:59;101170.69;;;6.12;83.66
80333;BME280;69652;51.864;-2.246;2024-01-06T01:38:25;101163.38;;;6.07;84.33
80333;BME280;69652;51.864;-2.246;2024-01-06T01:40:51;101169.03;;;6.06;84.48
80333;BME280;69652;51.864;-2.246;2024-01-06T01:43:20;101178.19;;;6.05;84.58
80333;BME280;69652;51.864;-2.246;2024-01-06T01:45:53;101176.56;;;6.04;84.88
80333;BME280;69652;51.864;-2.246;2024-01-06T01:48:20;101177.91;;;6.06;84.15
80333;BME280;69652;51.864;-2.246;2024-01-06T01:50:47;101180.06;;;6.04;84.59
80333;BME280;69652;51.864;-2.246;2024-01-06T01:53:13;101169.28;;;6.04;84.01
80333;BME280;69652;51.864;-2.246;2024-01-06T01:55:40;101174.66;;;6.04;84.94
80333;BME280;69652;51.864;-2.246;2024-01-06T01:58:06;101181.38;;;5.97;85.13
80333;BME280;69652;51.864;-2.246;2024-01-06T02:00:32;101181.88;;;5.89;84.53
80333;BME280;69652;51.864;-2.246;2024-01-06T02:02:59;101184.00;;;5.87;84.38
80333;BME280;69652;51.864;-2.246;2024-01-06T02:05:25;101184.25;;;5.85;85.42
80333;BME280;69652;51.864;-2.246;2024-01-06T02:07:50;101184.25;;;5.85;84.80
80333;BME280;69652;51.864;-2.246;2024-01-06T02:10:17;101189.16;;;5.88;85.41
80333;BME280;69652;51.864;-2.246;2024-01-06T02:12:43;101202.84;;;5.87;85.39
80333;BME280;69652;51.864;-2.246;2024-01-06T02:15:09;101202.03;;;5.86;84.42
80333;BME280;69652;51.864;-2.246;2024-01-06T02:17:34;101210.88;;;5.81;84.81
80333;BME280;69652;51.864;-2.246;2024-01-06T02:20:00;101206.28;;;5.77;84.84
80333;BME280;69652;51.864;-2.246;2024-01-06T02:22:25;101205.75;;;5.80;84.45
80333;BME280;69652;51.864;-2.246;2024-01-06T02:24:51;101217.91;;;5.82;85.39
80333;BME280;69652;51.864;-2.246;2024-01-06T02:27:16;101225.97;;;5.82;84.81
80333;BME280;69652;51.864;-2.246;2024-01-06T02:29:42;101228.09;;;5.80;85.20
80333;BME280;69652;51.864;-2.246;2024-01-06T02:32:07;101229.47;;;5.78;84.44
80333;BME280;69652;51.864;-2.246;2024-01-06T02:34:33;101232.16;;;5.78;84.77
80333;BME280;69652;51.864;-2.246;2024-01-06T02:37:00;101238.88;;;5.75;nan
80333;BME280;69652;51.864;-2.246;2024-01-06T02:39:25;101241.50;;;5.70;85.35
80333;BME280;69652;51.864;-2.246;2024-01-06T02:41:51;101247.72;;;5.71;84.72
80333;BME280;69652;51.864;-2.246;2024-01-06T02:44:16;101242.56;;;5.64;85.70
80333;BME280;69652;51.864;-2.246;2024-01-06T02:46:42;101239.25;;;5.57;85.83
80333;BME280;69652;51.864;-2.246;2024-01-06T02:49:08;101249.44;;;5.50;85.55
80333;BME280;69652;51.864;-2.246;2024-01-06T02:51:33;101254.50;;;5.47;85.66
80333;BME280;69652;51.864;-2.246;2024-01-06T02:53:59;101258.50;;;5.44;86.26
80333;BME280;69652;51.864;-2.246;2024-01-06T02:56:25;101250.34;;;5.34;85.31
80333;BME280;69652;51.864;-2.246;2024-01-06T02:58:50;101259.00;;;5.36;86.15
80333;BME280;69652;51.864;-2.246;2024-01-06T03:01:16;101252.22;;;5.33;86.27
80333;BME280;69652;51.864;-2.246;2024-01-06T03:03:42;101262.19;;;5.33;86.34
80333;BME280;69652;51.864;-2.246;2024-01-06T03:06:08;101260.84;;;5.30;86.33
80333;BME280;69652;51.864;-2.246;2024-01-06T03:08:33;101262.97;;;5.28;86.85
80333;BME280;69652;51.864;-2.246;2024-01-06T03:11:00;101262.44;;;5.31;86.54
80333;BME280;69652;51.864;-2.246;2024-01-06T03:13:26;101271.84;;;5.29;86.20
80333;BME280;69652;51.864;-2.246;2024-01-06T03:15:52;101270.22;;;5.28;85.97
80333;BME280;69652;51.864;-2.246;2024-01-06T03:18:17;101276.19;;;5.30;85.24
80333;BME280;69652;51.864;-2.246;2024-01-06T03:20:43;101279.38;;;5.27;86.14
80333;BME280;69652;51.864;-2.246;2024-01-06T03:23:08;101282.56;;;5.24;85.87
80333;BME280;69652;51.864;-2.246;2024-01-06T03:25:34;101276.94;;;5.25;86.66
80333;BME280;69652;51.864;-2.246;2024-01-06T03:27:59;101283.34;;;5.19;86.77
80333;BME280;69652;51.864;-2.246;2024-01-06T03:30:25;101289.47;;;5.15;86.80
80333;BME280;69652;51.864;-2.246;2024-01-06T03:32:50;101290.78;;;5.12;87.74
80333;BME280;69652;51.864;-2.246;2024-01-06T03:35:16;101294.50;;;5.06;86.98
80333;BME280;69652;51.864;-2.246;2024-01-06T03:37:43;101303.06;;;5.03;86.13
80333;BME280;69652;51.864;-2.246;2024-01-06T03:40:09;101306.00;;;5.01;86.52
80333;BME280;69652;51.864;-2.246;2024-01-06T03:42:35;101305.13;;;4.96;87.54
80333;BME280;69652;51.864;-2.246;2024-01-06T03:45:02;101310.44;;;4.91;86.89
80333;BME280;69652;51.864;-2.246;2024-01-06T03:47:27;101306.06;;;4.85;88.21
80333;BME280;69652;51.864;-2.246;2024-01-06T03:49:53;101315.16;;;4.79;88.28
80333;BME280;69652;51.864;-2.246;2024-01-06T03:52:18;101305.69;;;4.76;87.50
80333;BME280;69652;51.864;-2.246;2024-01-06T03:54:45;101308.34;;;4.71;87.69
80333;BME280;69652;51.864;-2.246;2024-01-06T03:57:10;101318.56;;;4.74;87.85
80333;BME280;69652;51.864;-2.246;2024-01-06T03:59:36;101314.53;;;4.71;87.75
80333;BME280;69652;51.864;-2.246;2024-01-06T04:02:01;101322.59;;;4.71;88.37
80333;BME280;69652;51.864;-2.246;2024-01-06T04:04:27;101323.34;;;4.67;87.20
80333;BME280;69652;51.864;-2.246;2024-01-06T04:06:52;101328.22;;;4.70;87.82
80333;BME280;69652;51.864;-2.246;2024-01-06T04:09:18;101332.22;;;4.67;88.48
80333;BME280;69652;51.864;-2.246;2024-01-06T04:11:43;101341.84;;;4.63;87.28
80333;BME280;69652;51.864;-2.246;2024-01-06T04:14:09;101347.16;;;4.58;87.31
80333;BME280;69652;51.864;-2.246;2024-01-06T04:16:34;101346.34;;;4.58;88.84
80333;BME280;69652;51.864;-2.246;2024-01-06T04:19:00;101348.94;;;4.53;87.95
80333;BME280;69652;51.864;-2.246;2024-01-06T04:21:26;101344.06;;;4.50;88.37
80333;BME280;69652;51.864;-2.246;2024-01-06T04:23:51;101342.69;;;4.47;89.01
80333;BME280;69652;51.864;-2.246;2024-01-06T04:26:17;101351.69;;;4.36;89.52
80333;BME280;69652;51.864;-2.246;2024-01-06T04:28:42;101349.22;;;4.34;89.16
80333;BME280;69652;51.864;-2.246;2024-01-06T04:31:08;101347.50;;;4.28;88.27
80333;BME280;69652;51.864;-2.246;2024-01-06T04:33:33;101355.00;;;4.26;88.14
80333;BME280;69652;51.864;-2.246;2024-01-06T04:35:59;101338.34;;;4.24;89.80
80333;BME280;69652;51.864;-2.246;2024-01-06T04:38:27;101338.06;;;4.26;90.44
80333;BME280;69652;51.864;-2.246;2024-01-06T04:40:52;101350.63;;;4.20;89.98
80333;BME280;69652;51.864;-2.246;2024-01-06T04:43:18;101352.75;;;4.18;90.15
80333;BME280;69652;51.864;-2.246;2024-01-06T04:45:43;101353.88;;;4.22;89.36
80333;BME280;69652;51.864;-2.246;2024-01-06T04:48:09;101359.09;;;4.29;90.56
80333;BME280;69652;51.864;-2.246;2024-01-06T04:50:35;101361.75;;;4.29;89.41
80333;BME280;69652;51.864;-2.246;2024-01-06T04:53:00;101363.00;;;4.21;89.33
80333;BME280;69652;51.864;-2.246;2024-01-06T04:55:25;101366.50;;;4.22;88.54
80333;BME280;69652;51.864;-2.246;2024-01-06T04:57:51;101365.13;;;4.19;89.96
80333;BME280;69652;51.864;-2.246;2024-01-06T05:00:17;101371.78;;;4.17;89.40
80333;BME280;69652;51.864;-2.246;2024-01-06T05:02:42;101369.84;;;4.12;90.17
80333;BME280;69652;51.864;-2.246;2024-01-06T05:05:08;101376.28;;;4.11;90.12
80333;BME280;69652;51.864;-2.246;2024-01-06T05:07:34;101378.63;;;4.08;89.84
80333;BME280;69652;51.864;-2.246;2024-01-06T05:09:59;101378.38;;;4.09;90.98
80333;BME280;69652;51.864;-2.246;2024-01-06T05:12:25;101389.38;;;4.08;90.24
80333;BME280;69652;51.864;-2.246;2024-01-06T05:14:50;101387.91;;;4.00;89.51
80333;BME280;69652;51.864;-2.246;2024-01-06T05:17:16;101396.44;;;3.97;90.08
80333;BME280;69652;51.864;-2.246;2024-01-06T05:19:41;101399.63;;;3.94;90.15
80333;BME280;69652;51.864;-2.246;2024-01-06T05:22:07;101398.22;;;3.91;89.93
80333;BME280;69652;51.864;-2.246;2024-01-06T05:24:33;101410.28;;;3.89;89.97
80333;BME280;69652;51.864;-2.246;2024-01-06T05:26:58;101404.81;;;3.84;90.80
80333;BME280;69652;51.864;-2.246;2024-01-06T05:29:24;101411.25;;;3.83;90.93
80333;BME280;69652;51.864;-2.246;2024-01-06T05:31:51;101409.03;;;3.80;91.55
80333;BME280;69652;51.864;-2.246;2024-01-06T05:34:17;101414.91;;;3.77;90.97
80333;BME280;69652;51.864;-2.246;2024-01-06T05:36:42;101416.84;;;3.81;91.78
80333;BME280;69652;51.864;-2.246;2024-01-06T05:39:08;101414.09;;;3.76;90.53
80333;BME280;69652;51.864;-2.246;2024-01-06T05:41:39;101425.31;;;3.73;89.68
80333;BME280;69652;51.864;-2.246;2024-01-06T05:44:05;101429.38;;;3.76;90.29
80333;BME280;69652;51.864;-2.246;2024-01-06T05:46:31;101432.06;;;3.76;91.65
80333;BME280;69652;51.864;-2.246;2024-01-06T05:48:56;101439.44;;;3.69;90.10
80333;BME280;69652;51.864;-2.246;2024-01-06T05:51:22;101437.81;;;3.68;91.19
80333;BME280;69652;51.864;-2.246;2024-01-06T05:53:48;101437.31;;;3.71;90.22
80333;BME280;69652;51.864;-2.246;2024-01-06T05:56:26;101441.88;;;3.70;90.95
80333;BME280;69652;51.864;-2.246;2024-01-06T05:58:53;101445.97;;;3.73;90.68
80333;BME280;69652;51.864;-2.246;2024-01-06T06:01:20;101453.34;;;3.66;90.42
80333;BME280;69652;51.864;-2.246;2024-01-06T06:03:48;101454.97;;;3.67;91.22
80333;BME280;69652;51.864;-2.246;2024-01-06T06:06:15;101460.00;;;3.63;90.26
80333;BME280;69652;51.864;-2.246;2024-01-06T06:08:42;101452.53;;;3.65;90.07
80333;BME280;69652;51.864;-2.246;2024-01-06T06:11:08;101456.34;;;3.69;90.44
80333;BME280;69652;51.864;-2.246;2024-01-06T06:13:42;101464.56;;;3.62;90.27
80333;BME280;69652;51.864;-2.246;2024-01-06T06:16:11;101458.63;;;3.60;90.21
80333;BME280;69652;51.864;-2.246;2024-01-06T06:18:40;101470.50;;;3.65;90.62
80333;BME280;69652;51.864;-2.246;2024-01-06T06:21:09;101463.63;;;3.57;91.03
80333;BME280;69652;51.864;-2.246;2024-01-06T06:23:35;101469.00;;;3.57;90.90
80333;BME280;69652;51.864;-2.246;2024-01-06T06:26:07;101463.06;;;3.55;90.64
80333;BME280;69652;51.864;-2.246;2024-01-06T06:28:34;101479.50;;;3.58;90.71
80333;BME280;69652;51.864;-2.246;2024-01-06T06:31:03;101483.34;;;3.62;90.74
80333;BME280;69652;51.864;-2.246;2024-01-06T06:33:29;101480.53;;;3.69;91.06
80333;BME280;69652;51.864;-2.246;2024-01-06T06:35:54;101481.34;;;3.70;91.02
80333;BME280;69652;51.864;-2.246;2024-01-06T06:38:20;101483.19;;;3.69;91.18
80333;BME280;69652;51.864;-2.246;2024-01-06T06:40:46;101490.94;;;3.66;90.48
80333;BME280;69652;51.864;-2.246;2024-01-06T06:43:13;101498.59;;;3.74;90.42
80333;BME280;69652;51.864;-2.246;2024-01-06T06:45:38;101506.53;;;3.69;90.42
80333;BME280;69652;51.864;-2.246;2024-01-06T06:48:04;101510.50;;;3.66;90.07
80333;BME280;69652;51.864;-2.246;2024-01-06T06:50:30;101525.84;;;3.66;90.05
80333;BME280;69652;51.864;-2.246;2024-01-06T06:52:55;101522.56;;;3.63;90.55
80333;BME280;69652;51.864;-2.246;2024-01-06T06:55:21;101521.41;;;3.59;91.13
80333;BME280;69652;51.864;-2.246;2024-01-06T06:57:46;101534.59;;;3.61;90.68
80333;BME280;69652;51.864;-2.246;2024-01-06T07:00:12;101540.19;;;3.59;90.99
80333;BME280;69652;51.864;-2.246;2024-01-06T07:02:38;101539.13;;;3.60;90.42
80333;BME280;69652;51.864;-2.246;2024-01-06T07:05:04;101549.66;;;3.62;91.00
80333;BME280;69652;51.864;-2.246;2024-01-06T07:07:33;101546.59;;;3.58;90.96
80333;BME280;69652;51.864;-2.246;2024-01-06T07:10:00;101552.22;;;3.57;90.82
80333;BME280;69652;51.864;-2.246;2024-01-06T07:12:26;101561.53;;;3.54;90.59
80333;BME280;69652;51.864;-2.246;2024-01-06T07:14:53;101565.53;;;3.52;91.73
80333;BME280;69652;51.864;-2.246;2024-01-06T07:17:18;101569.50;;;3.49;91.67
80333;BME280;69652;51.864;-2.246;2024-01-06T07:19:44;101568.53;;;3.55;91.64
80333;BME280;69652;51.864;-2.246;2024-01-06T07:22:09;101581.41;;;3.65;90.69
80333;BME280;69652;51.864;-2.246;2024-01-06T07:24:35;101584.25;;;3.87;89.80
80333;BME280;69652;51.864;-2.246;2024-01-06T07:27:02;101583.88;;;3.95;89.85
80333;BME280;69652;51.864;-2.246;2024-01-06T07:29:28;101598.56;;;4.04;88.97
80333;BME280;69652;51.864;-2.246;2024-01-06T07:31:54;101598.56;;;4.04;89.76
80333;BME280;69652;51.864;-2.246;2024-01-06T07:34:20;101600.31;;;4.10;90.21
80333;BME280;69652;51.864;-2.246;2024-01-06T07:36:46;101598.63;;;4.21;89.52
80333;BME280;69652;51.864;-2.246;2024-01-06T07:39:11;101601.31;;;4.21;88.66
80333;BME280;69652;51.864;-2.246;2024-01-06T07:41:37;101609.00;;;4.29;88.53
80333;BME280;69652;51.864;-2.246;2024-01-06T07:44:02;101612.59;;;4.34;88.16
80333;BME280;69652;51.864;-2.246;2024-01-06T07:46:28;101617.00;;;4.41;88.10
80333;BME280;69652;51.864;-2.246;2024-01-06T07:48:54;101621.66;;;4.45;88.30
80333;BME280;69652;51.864;-2.246;2024-01-06T07:51:20;101621.19;;;4.48;89.07
80333;BME280;69652;51.864;-2.246;2024-01-06T07:53:45;101625.25;;;4.51;89.14
80333;BME280;69652;51.864;-2.246;2024-01-06T07:56:11;101634.25;;;4.56;88.45
80333;BME280;69652;51.864;-2.246;2024-01-06T07:58:36;101629.44;;;4.58;87.72
80333;BME280;69652;51.864;-2.246;2024-01-06T08:01:02;101630.25;;;4.59;88.41
80333;BME280;69652;51.864;-2.246;2024-01-06T08:03:28;101641.09;;;4.64;87.91
80333;BME280;69652;51.864;-2.246;2024-01-06T08:05:53;101644.38;;;4.66;88.01
80333;BME280;69652;51.864;-2.246;2024-01-06T08:08:19;101650.09;;;4.69;88.85
80333;BME280;69652;51.864;-2.246;2024-01-06T08:10:46;101645.28;;;4.71;88.55
80333;BME280;69652;51.864;-2.246;2024-01-06T08:13:12;101651.38;;;4.67;87.44
80333;BME280;69652;51.864;-2.246;2024-01-06T08:15:38;101655.13;;;4.66;88.62
80333;BME280;69652;51.864;-2.246;2024-01-06T08:18:04;101660.03;;;4.69;87.80
80333;BME280;69652;51.864;-2.246;2024-01-06T08:20:29;101668.16;;;4.74;88.83
80333;BME280;69652;51.864;-2.246;2024-01-06T08:22:55;101667.22;;;4.80;87.51
80333;BME280;69652;51.864;-2.246;2024-01-06T08:25:20;101669.81;;;4.75;87.63
80333;BME280;69652;51.864;-2.246;2024-01-06T08:27:46;101674.13;;;4.76;88.65
80333;BME280;69652;51.864;-2.246;2024-01-06T08:30:12;101678.78;;;4.81;87.73
80333;BME280;69652;51.864;-2.246;2024-01-06T08:32:37;101676.69;;;4.83;86.93
80333;BME280;69652;51.864;-2.246;2024-01-06T08:35:03;101685.88;;;4.87;87.16
80333;BME280;69652;51.864;-2.246;2024-01-06T08:37:30;101690.44;;;4.86;88.12
80333;BME280;69652;51.864;-2.246;2024-01-06T08:39:55;101680.44;;;4.82;86.32
80333;BME280;69652;51.864;-2.246;2024-01-06T08:42:21;101678.78;;;4.81;87.77
80333;BME280;69652;51.864;-2.246;2024-01-06T08:44:47;101693.28;;;4.80;87.56
80333;BME280;69652;51.864;-2.246;2024-01-06T08:47:12;101691.41;;;4.80;86.89
80333;BME280;69652;51.864;-2.246;2024-01-06T08:49:38;101697.94;;;4.84;88.11
80333;BME280;69652;51.864;-2.246;2024-01-06T08:52:04;101695.59;;;4.88;86.69
80333;BME280;69652;51.864;-2.246;2024-01-06T08:54:31;101705.41;;;4.94;88.34
80333;BME280;69652;51.864;-2.246;2024-01-06T08:56:57;101712.25;;;5.01;86.43
80333;BME280;69652;51.864;-2.246;2024-01-06T08:59:22;101715.03;;;5.06;86.85
80333;BME280;69652;51.864;-2.246;2024-01-06T09:01:48;101713.72;;;5.09;86.74
80333;BME280;69652;51.864;-2.246;2024-01-06T09:04:14;101717.00;;;5.11;87.42
80333;BME280;69652;51.864;-2.246;2024-01-06T09:06:40;101722.94;;;5.13;86.05
80333;BME280;69652;51.864;-2.246;2024-01-06T09:09:07;101726.22;;;5.15;87.01
80333;BME280;69652;51.864;-2.246;2024-01-06T09:11:33;101727.38;;;5.19;87.02
80333;BME280;69652;51.864;-2.246;2024-01-06T09:13:59;101732.50;;;5.21;86.13
80333;BME280;69652;51.864;-2.246;2024-01-06T09:16:26;101733.41;;;5.26;86.59
80333;BME280;69652;51.864;-2.246;2024-01-06T09:18:51;101738.06;;;5.31;85.02
80333;BME280;69652;51.864;-2.246;2024-01-06T09:21:17;101751.38;;;5.37;84.82
80333;BME280;69652;51.864;-2.246;2024-01-06T09:23:43;101750.88;;;5.40;84.55
80333;BME280;69652;51.864;-2.246;2024-01-06T09:26:09;101750.97;;;5.45;85.38
80333;BME280;69652;51.864;-2.246;2024-01-06T09:28:35;101759.28;;;5.44;85.22
80333;BME280;69652;51.864;-2.246;2024-01-06T09:31:00;101761.25;;;5.49;85.71
80333;BME280;69652;51.864;-2.246;2024-01-06T09:33:26;101763.69;;;5.50;85.32
80333;BME280;69652;51.864;-2.246;2024-01-06T09:35:52;101773.66;;;5.50;85.02
80333;BME280;69652;51.864;-2.246;2024-01-06T09:38:18;101768.25;;;5.50;85.75
80333;BME280;69652;51.864;-2.246;2024-01-06T09:40:44;101775.75;;;5.48;83.85
80333;BME280;69652;51.864;-2.246;2024-01-06T09:43:11;101775.03;;;5.52;85.23
80333;BME280;69652;51.864;-2.246;2024-01-06T09:45:37;101779.69;;;5.57;84.89
80333;BME280;69652;51.864;-2.246;2024-01-06T09:48:11;101782.72;;;5.60;84.47
80333;BME280;69652;51.864;-2.246;2024-01-06T09:50:40;101788.75;;;5.67;84.89
80333;BME280;69652;51.864;-2.246;2024-01-06T09:53:06;101790.47;;;5.73;84.79
80333;BME280;69652;51.864;-2.246;2024-01-06T09:55:34;101782.47;;;5.78;85.01
80333;BME280;69652;51.864;-2.246;2024-01-06T09:58:01;101783.59;;;5.82;85.72
80333;BME280;69652;51.864;-2.246;2024-01-06T10:00:26;101795.78;;;5.85;84.07
80333;BME280;69652;51.864;-2.246;2024-01-06T10:02:52;101795.63;;;5.92;83.86
80333;BME280;69652;51.864;-2.246;2024-01-06T10:05:18;101794.72;;;5.86;83.11
80333;BME280;69652;51.864;-2.246;2024-01-06T10:07:47;101800.19;;;5.91;83.14
80333;BME280;69652;51.864;-2.246;2024-01-06T10:10:14;101794.41;;;5.99;83.75
80333;BME280;69652;51.864;-2.246;2024-01-06T10:12:42;101801.50;;;6.05;82.71
80333;BME280;69652;51.864;-2.246;2024-01-06T10:15:10;101809.69;;;6.10;83.49
80333;BME280;69652;51.864;-2.246;2024-01-06T10:17:39;101802.66;;;6.09;82.93
80333;BME280;69652;51.864;-2.246;2024-01-06T10:20:15;101807.47;;;6.07;82.75
80333;BME280;69652;51.864;-2.246;2024-01-06T10:22:42;101808.59;;;6.28;82.58
80333;BME280;69652;51.864;-2.246;2024-01-06T10:25:09;101813.47;;;6.48;83.03
80333;BME280;69652;51.864;-2.246;2024-01-06T10:27:39;101814.78;;;6.45;81.53
80333;BME280;69652;51.864;-2.246;2024-01-06T10:30:09;101814.00;;;6.50;80.76
80333;BME280;69652;51.864;-2.246;2024-01-06T10:32:35;101815.72;;;6.56;80.70
80333;BME280;69652;51.864;-2.246;2024-01-06T10:35:02;101820.44;;;6.66;81.89
80333;BME280;69652;51.864;-2.246;2024-01-06T10:37:29;101814.72;;;6.62;80.42
80333;BME280;69652;51.864;-2.246;2024-01-06T10:42:36;101825.13;;;6.75;83.43
80333;BME280;69652;51.864;-2.246;2024-01-06T10:45:08;101819.72;;;6.75;80.95
80333;BME280;69652;51.864;-2.246;2024-01-06T10:47:35;101824.97;;;6.82;82.09
80333;BME280;69652;51.864;-2.246;2024-01-06T10:50:01;101820.25;;;6.72;81.53
80333;BME280;69652;51.864;-2.246;2024-01-06T10:52:28;101816.28;;;6.80;80.43
80333;BME280;69652;51.864;-2.246;2024-01-06T10:54:54;101819.69;;;6.70;80.33
80333;BME280;69652;51.864;-2.246;2024-01-06T10:57:21;101821.59;;;6.53;83.08
80333;BME280;69652;51.864;-2.246;2024-01-06T10:59:50;101827.66;;;6.60;81.89
80333;BME280;69652;51.864;-2.246;2024-01-06T11:02:16;101823.06;;;6.61;81.31
80333;BME280;69652;51.864;-2.246;2024-01-06T11:04:44;101827.91;;;6.59;81.19
80333;BME280;69652;51.864;-2.246;2024-01-06T11:07:10;101826.63;;;6.88;81.37
80333;BME280;69652;51.864;-2.246;2024-01-06T11:09:39;101825.19;;;7.02;79.69
80333;BME280;69652;51.864;-2.246;2024-01-06T11:12:07;101828.78;;;7.08;78.32
80333;BME280;69652;51.864;-2.246;2024-01-06T11:14:37;101823.00;;;6.99;78.80
80333;BME280;69652;51.864;-2.246;2024-01-06T11:17:03;101821.59;;;7.18;78.72
80333;BME280;69652;51.864;-2.246;2024-01-06T11:22:29;101825.91;;;7.41;78.24
80333;BME280;69652;51.864;-2.246;2024-01-06T11:25:04;101821.06;;;7.43;77.75
80333;BME280;69652;51.864;-2.246;2024-01-06T11:27:31;101825.25;;;7.34;78.16
80333;BME280;69652;51.864;-2.246;2024-01-06T11:29:58;101827.94;;;7.29;77.94
80333;BME280;69652;51.864;-2.246;2024-01-06T11:34:53;101828.13;;;7.22;77.65
80333;BME280;69652;51.864;-2.246;2024-01-06T11:37:50;101825.72;;;7.26;81.11
80333;BME280;69652;51.864;-2.246;2024-01-06T11:45:29;101818.72;;;9.81;70.37
80333;BME280;69652;51.864;-2.246;2024-01-06T11:47:57;101815.75;;;11.03;66.13
80333;BME280;69652;51.864;-2.246;2024-01-06T11:50:25;101807.09;;;10.96;64.46
80333;BME280;69652;51.864;-2.246;2024-01-06T11:52:51;101808.75;;;11.41;65.66
80333;BME280;69652;51.864;-2.246;2024-01-06T11:55:20;101804.78;;;11.62;65.98
80333;BME280;69652;51.864;-2.246;2024-01-06T11:57:46;101799.34;;;12.25;60.70
80333;BME280;69652;51.864;-2.246;2024-01-06T12:00:13;101799.69;;;12.66;63.29
80333;BME280;69652;51.864;-2.246;2024-01-06T12:02:40;101806.84;;;12.38;60.58
80333;BME280;69652;51.864;-2.246;2024-01-06T12:05:06;101804.22;;;11.65;67.87
80333;BME280;69652;51.864;-2.246;2024-01-06T12:07:37;101807.56;;;10.48;67.53
80333;BME280;69652;51.864;-2.246;2024-01-06T12:10:03;101816.28;;;9.79;68.43
80333;BME280;69652;51.864;-2.246;2024-01-06T12:12:29;101826.00;;;9.35;70.62
80333;BME280;69652;51.864;-2.246;2024-01-06T12:14:55;101820.25;;;9.06;72.07
80333;BME280;69652;51.864;-2.246;2024-01-06T12:17:21;101824.78;;;8.90;73.13
80333;BME280;69652;51.864;-2.246;2024-01-06T12:19:47;101819.41;;;8.95;78.50
80333;BME280;69652;51.864;-2.246;2024-01-06T12:22:15;101818.56;;;8.90;74.69
80333;BME280;69652;51.864;-2.246;2024-01-06T12:24:41;101824.59;;;9.12;72.68
80333;BME280;69652;51.864;-2.246;2024-01-06T12:27:11;101820.84;;;9.33;72.50
80333;BME280;69652;51.864;-2.246;2024-01-06T12:29:43;101823.81;;;9.27;71.50
80333;BME280;69652;51.864;-2.246;2024-01-06T12:32:10;101825.13;;;9.04;72.04
80333;BME280;69652;51.864;-2.246;2024-01-06T12:34:36;101824.22;;;8.83;73.75
80333;BME280;69652;51.864;-2.246;2024-01-06T12:37:02;101826.59;;;8.69;74.45
80333;BME280;69652;51.864;-2.246;2024-01-06T12:39:29;101825.69;;;8.54;73.85
80333;BME280;69652;51.864;-2.246;2024-01-06T12:41:56;101819.41;;;8.43;74.84
80333;BME280;69652;51.864;-2.246;2024-01-06T12:44:22;101824.78;;;8.33;75.36
80333;BME280;69652;51.864;-2.246;2024-01-06T12:46:49;101827.13;;;8.24;75.00
80333;BME280;69652;51.864;-2.246;2024-01-06T12:49:14;101825.44;;;8.13;75.63
80333;BME280;69652;51.864;-2.246;2024-01-06T12:51:40;101819.16;;;8.08;76.18
80333;BME280;69652;51.864;-2.246;2024-01-06T12:54:06;101826.44;;;8.07;76.16
80333;BME280;69652;51.864;-2.246;2024-01-06T12:56:32;101828.56;;;8.00;76.48
80333;BME280;69652;51.864;-2.246;2024-01-06T12:58:58;101836.38;;;7.96;76.84